Time,TemperatureF,DewpointF,PressureIn,WindDirection,WindDirectionDegrees,WindSpeedMPH,WindSpeedGustMPH,Humidity,HourlyPrecipIn,Conditions,Clouds,dailyrainin,SoftwareType,DateUTC
2013-08-03 00:02:00,67.5,64.8,29.91,WNW,293,0.0,0.0,91,0.00,,,0.00,Wunderground v.1.15,2013-08-03 05:02:00,
2013-08-03 00:08:00,67.3,64.6,29.91,WNW,293,0.0,0.0,91,0.00,,,0.00,Wunderground v.1.15,2013-08-03 05:08:00,
2013-08-03 00:14:00,67.2,64.8,29.92,WNW,293,0.0,0.0,92,0.00,,,0.00,Wunderground v.1.15,2013-08-03 05:14:00,
2013-08-03 00:20:00,67.1,64.7,29.91,WNW,293,0.0,0.0,92,0.00,,,0.00,Wunderground v.1.15,2013-08-03 05:20:00,
2013-08-03 00:26:00,66.9,64.5,29.92,WNW,293,0.0,0.0,92,0.00,,,0.00,Wunderground v.1.15,2013-08-03 05:26:00,
2013-08-03 00:32:00,66.8,64.7,29.92,WNW,293,0.0,0.0,93,0.00,,,0.00,Wunderground v.1.15,2013-08-03 05:32:00,
2013-08-03 00:38:00,66.7,64.6,29.92,WNW,293,0.0,0.0,93,0.00,,,0.00,Wunderground v.1.15,2013-08-03 05:38:00,
2013-08-03 00:44:00,66.6,64.5,29.92,WNW,293,0.0,0.0,93,0.00,,,0.00,Wunderground v.1.15,2013-08-03 05:44:00,
2013-08-03 00:50:00,66.5,64.4,29.92,WNW,293,0.0,0.0,93,0.00,,,0.00,Wunderground v.1.15,2013-08-03 05:50:00,
2013-08-03 00:56:00,66.5,64.4,29.92,WNW,293,0.0,0.0,93,0.00,,,0.00,Wunderground v.1.15,2013-08-03 05:56:00,
2013-08-03 01:02:00,66.5,64.7,29.92,WNW,293,0.0,0.0,94,0.00,,,0.00,Wunderground v.1.15,2013-08-03 06:02:00,
2013-08-03 01:08:00,66.4,64.6,29.92,WNW,293,0.0,0.0,94,0.00,,,0.00,Wunderground v.1.15,2013-08-03 06:08:00,
2013-08-03 01:14:00,66.4,64.6,29.92,WNW,293,0.0,0.0,94,0.00,,,0.00,Wunderground v.1.15,2013-08-03 06:14:00,
2013-08-03 01:20:00,66.4,64.6,29.92,WNW,293,0.0,0.0,94,0.00,,,0.00,Wunderground v.1.15,2013-08-03 06:20:00,
2013-08-03 01:26:00,66.4,64.6,29.92,WNW,294,0.0,0.0,94,0.00,,,0.00,Wunderground v.1.15,2013-08-03 06:26:00,
2013-08-03 01:32:00,66.3,64.2,29.92,WNW,293,0.0,0.0,93,0.00,,,0.00,Wunderground v.1.15,2013-08-03 06:32:00,
2013-08-03 01:38:00,66.4,64.0,29.92,WNW,293,1.0,2.0,92,0.00,,,0.00,Wunderground v.1.15,2013-08-03 06:38:00,
2013-08-03 01:44:00,66.5,64.1,29.92,WNW,293,1.0,1.0,92,0.00,,,0.00,Wunderground v.1.15,2013-08-03 06:44:00,
2013-08-03 01:50:00,66.5,63.8,29.93,WNW,293,1.0,3.0,91,0.00,,,0.00,Wunderground v.1.15,2013-08-03 06:50:00,
2013-08-03 01:56:00,66.6,63.9,29.92,WNW,293,1.0,2.0,91,0.00,,,0.00,Wunderground v.1.15,2013-08-03 06:56:00,
2013-08-03 02:02:00,66.5,63.8,29.93,WNW,293,1.0,1.0,91,0.00,,,0.00,Wunderground v.1.15,2013-08-03 07:02:00,
2013-08-03 02:08:00,66.6,63.9,29.92,WNW,293,0.0,1.0,91,0.00,,,0.00,Wunderground v.1.15,2013-08-03 07:08:00,
2013-08-03 02:14:00,66.5,63.8,29.93,WNW,293,0.0,0.0,91,0.00,,,0.00,Wunderground v.1.15,2013-08-03 07:14:00,
2013-08-03 02:19:00,66.4,63.7,29.93,WNW,293,0.0,0.0,91,0.00,,,0.00,Wunderground v.1.15,2013-08-03 07:19:00,
2013-08-03 02:25:00,66.2,63.8,29.93,WNW,293,0.0,0.0,92,0.00,,,0.00,Wunderground v.1.15,2013-08-03 07:25:00,
2013-08-03 02:32:00,66.1,63.7,29.93,WNW,293,0.0,0.0,92,0.00,,,0.00,Wunderground v.1.15,2013-08-03 07:32:00,
2013-08-03 02:38:00,65.9,63.5,29.93,WNW,293,0.0,0.0,92,0.00,,,0.00,Wunderground v.1.15,2013-08-03 07:38:00,
2013-08-03 02:44:00,65.8,63.7,29.93,WNW,293,0.0,0.0,93,0.00,,,0.00,Wunderground v.1.15,2013-08-03 07:44:00,
2013-08-03 02:50:00,65.7,63.3,29.94,WNW,293,0.0,0.0,92,0.00,,,0.00,Wunderground v.1.15,2013-08-03 07:50:00,
2013-08-03 02:56:00,65.7,63.3,29.93,WNW,293,0.0,0.0,92,0.00,,,0.00,Wunderground v.1.15,2013-08-03 07:56:00,
2013-08-03 03:02:00,65.8,63.4,29.93,WNW,293,0.0,0.0,92,0.00,,,0.00,Wunderground v.1.15,2013-08-03 08:02:00,
2013-08-03 03:07:00,65.8,63.4,29.94,WNW,293,0.0,0.0,92,0.00,,,0.00,Wunderground v.1.15,2013-08-03 08:07:00,
2013-08-03 03:14:00,65.8,63.4,29.94,WNW,293,0.0,0.0,92,0.00,,,0.00,Wunderground v.1.15,2013-08-03 08:14:00,
2013-08-03 03:20:00,65.6,62.9,29.94,WNW,293,0.0,1.0,91,0.00,,,0.00,Wunderground v.1.15,2013-08-03 08:20:00,
2013-08-03 03:26:00,65.6,62.9,29.94,WNW,293,1.0,2.0,91,0.00,,,0.00,Wunderground v.1.15,2013-08-03 08:26:00,
2013-08-03 03:32:00,65.5,62.8,29.94,WNW,293,0.0,1.0,91,0.00,,,0.00,Wunderground v.1.15,2013-08-03 08:32:00,
2013-08-03 03:38:00,65.4,62.4,29.93,WNW,293,0.0,1.0,90,0.00,,,0.00,Wunderground v.1.15,2013-08-03 08:38:00,
2013-08-03 03:44:00,65.2,62.2,29.93,WNW,294,0.0,0.0,90,0.00,,,0.00,Wunderground v.1.15,2013-08-03 08:44:00,
2013-08-03 03:50:00,65.2,62.2,29.93,WNW,293,0.0,0.0,90,0.00,,,0.00,Wunderground v.1.15,2013-08-03 08:50:00,
2013-08-03 03:56:00,65.1,62.4,29.93,WNW,293,0.0,0.0,91,0.00,,,0.00,Wunderground v.1.15,2013-08-03 08:56:00,
2013-08-03 04:02:00,65.0,62.0,29.93,WNW,293,0.0,1.0,90,0.00,,,0.00,Wunderground v.1.15,2013-08-03 09:02:00,
2013-08-03 04:08:00,65.0,62.3,29.93,WNW,293,0.0,1.0,91,0.00,,,0.00,Wunderground v.1.15,2013-08-03 09:08:00,
2013-08-03 04:14:00,64.8,61.8,29.92,WNW,294,0.0,0.0,90,0.00,,,0.00,Wunderground v.1.15,2013-08-03 09:14:00,
2013-08-03 04:20:00,64.6,61.6,29.93,WNW,293,0.0,0.0,90,0.00,,,0.00,Wunderground v.1.15,2013-08-03 09:20:00,
2013-08-03 04:26:00,64.3,61.3,29.93,WNW,293,0.0,0.0,90,0.00,,,0.00,Wunderground v.1.15,2013-08-03 09:26:00,
2013-08-03 04:32:00,63.8,60.8,29.93,WNW,293,0.0,0.0,90,0.00,,,0.00,Wunderground v.1.15,2013-08-03 09:32:00,
2013-08-03 04:37:00,63.5,60.5,29.93,WNW,294,0.0,0.0,90,0.00,,,0.00,Wunderground v.1.15,2013-08-03 09:37:00,
2013-08-03 04:44:00,63.2,60.2,29.93,WNW,293,0.0,0.0,90,0.00,,,0.00,Wunderground v.1.15,2013-08-03 09:44:00,
2013-08-03 04:50:00,63.0,60.0,29.93,WNW,294,0.0,0.0,90,0.00,,,0.00,Wunderground v.1.15,2013-08-03 09:50:00,
2013-08-03 04:55:00,62.7,59.7,29.93,WNW,293,0.0,0.0,90,0.00,,,0.00,Wunderground v.1.15,2013-08-03 09:55:00,
2013-08-03 05:02:00,62.5,59.5,29.94,WNW,293,0.0,0.0,90,0.00,,,0.00,Wunderground v.1.15,2013-08-03 10:02:00,
2013-08-03 05:08:00,62.2,59.2,29.94,WNW,293,0.0,0.0,90,0.00,,,0.00,Wunderground v.1.15,2013-08-03 10:08:00,
2013-08-03 05:14:00,62.0,59.3,29.94,WNW,294,0.0,0.0,91,0.00,,,0.00,Wunderground v.1.15,2013-08-03 10:14:00,
2013-08-03 05:20:00,61.8,59.1,29.94,WNW,294,0.0,0.0,91,0.00,,,0.00,Wunderground v.1.15,2013-08-03 10:20:00,
2013-08-03 05:26:00,61.5,58.8,29.94,WNW,294,0.0,0.0,91,0.00,,,0.00,Wunderground v.1.15,2013-08-03 10:26:00,
2013-08-03 05:32:00,61.2,58.6,29.94,WNW,294,0.0,0.0,91,0.00,,,0.00,Wunderground v.1.15,2013-08-03 10:32:00,
2013-08-03 05:38:00,60.9,58.3,29.94,WNW,294,0.0,0.0,91,0.00,,,0.00,Wunderground v.1.15,2013-08-03 10:38:00,
2013-08-03 05:44:00,60.6,58.0,29.94,WNW,294,0.0,0.0,91,0.00,,,0.00,Wunderground v.1.15,2013-08-03 10:44:00,
2013-08-03 05:50:00,60.4,58.1,29.94,WNW,294,0.0,0.0,92,0.00,,,0.00,Wunderground v.1.15,2013-08-03 10:50:00,
2013-08-03 05:56:00,60.2,57.9,29.95,WNW,294,0.0,0.0,92,0.00,,,0.00,Wunderground v.1.15,2013-08-03 10:56:00,
2013-08-03 06:02:00,60.0,57.7,29.95,WNW,293,0.0,0.0,92,0.00,,,0.00,Wunderground v.1.15,2013-08-03 11:02:00,
2013-08-03 06:08:00,59.8,57.5,29.95,WNW,294,0.0,0.0,92,0.00,,,0.00,Wunderground v.1.15,2013-08-03 11:08:00,
2013-08-03 06:14:00,59.8,57.5,29.95,WNW,294,0.0,0.0,92,0.00,,,0.00,Wunderground v.1.15,2013-08-03 11:14:00,
2013-08-03 06:20:00,59.7,57.4,29.95,WNW,294,0.0,1.0,92,0.00,,,0.00,Wunderground v.1.15,2013-08-03 11:20:00,
2013-08-03 06:26:00,59.8,57.5,29.95,WNW,293,0.0,1.0,92,0.00,,,0.00,Wunderground v.1.15,2013-08-03 11:26:00,
2013-08-03 06:32:00,59.8,57.2,29.96,WNW,293,0.0,0.0,91,0.00,,,0.00,Wunderground v.1.15,2013-08-03 11:32:00,
2013-08-03 06:38:00,59.8,57.2,29.96,WNW,294,0.0,0.0,91,0.00,,,0.00,Wunderground v.1.15,2013-08-03 11:38:00,
2013-08-03 06:44:00,59.9,57.6,29.96,WNW,293,0.0,0.0,92,0.00,,,0.00,Wunderground v.1.15,2013-08-03 11:44:00,
2013-08-03 06:49:00,60.1,57.8,29.96,WNW,293,0.0,0.0,92,0.00,,,0.00,Wunderground v.1.15,2013-08-03 11:49:00,
2013-08-03 06:56:00,60.5,58.2,29.97,WNW,293,0.0,0.0,92,0.00,,,0.00,Wunderground v.1.15,2013-08-03 11:56:00,
2013-08-03 07:02:00,60.9,58.3,29.96,WNW,293,0.0,0.0,91,0.00,,,0.00,Wunderground v.1.15,2013-08-03 12:02:00,
2013-08-03 07:08:00,61.3,58.7,29.97,WNW,293,0.0,0.0,91,0.00,,,0.00,Wunderground v.1.15,2013-08-03 12:08:00,
2013-08-03 07:14:00,61.8,58.8,29.97,WNW,293,0.0,0.0,90,0.00,,,0.00,Wunderground v.1.15,2013-08-03 12:14:00,
2013-08-03 07:20:00,62.2,58.9,29.97,WNW,293,0.0,0.0,89,0.00,,,0.00,Wunderground v.1.15,2013-08-03 12:20:00,
2013-08-03 07:26:00,62.7,59.4,29.97,NNW,333,0.0,0.0,89,0.00,,,0.00,Wunderground v.1.15,2013-08-03 12:26:00,
2013-08-03 07:32:00,63.2,59.6,29.97,North,360,1.0,2.0,88,0.00,,,0.00,Wunderground v.1.15,2013-08-03 12:32:00,
2013-08-03 07:38:00,63.7,59.8,29.97,NNE,14,0.0,2.0,87,0.00,,,0.00,Wunderground v.1.15,2013-08-03 12:38:00,
2013-08-03 07:44:00,64.2,59.9,29.98,NNE,26,0.0,1.0,86,0.00,,,0.00,Wunderground v.1.15,2013-08-03 12:44:00,
2013-08-03 07:50:00,64.7,60.1,29.98,NNE,26,1.0,1.0,85,0.00,,,0.00,Wunderground v.1.15,2013-08-03 12:50:00,
2013-08-03 07:56:00,65.3,60.3,29.98,NNE,26,1.0,1.0,84,0.00,,,0.00,Wunderground v.1.15,2013-08-03 12:56:00,
2013-08-03 08:02:00,65.9,60.6,29.99,NNE,26,1.0,1.0,83,0.00,,,0.00,Wunderground v.1.15,2013-08-03 13:02:00,
2013-08-03 08:08:00,66.6,60.9,29.99,NNE,26,0.0,1.0,82,0.00,,,0.00,Wunderground v.1.15,2013-08-03 13:08:00,
2013-08-03 08:14:00,67.2,60.8,29.99,NNE,26,1.0,1.0,80,0.00,,,0.00,Wunderground v.1.15,2013-08-03 13:14:00,
2013-08-03 08:20:00,67.7,61.7,30.00,NNE,26,1.0,2.0,81,0.00,,,0.00,Wunderground v.1.15,2013-08-03 13:20:00,
2013-08-03 08:26:00,68.3,61.9,30.00,NNE,26,0.0,2.0,80,0.00,,,0.00,Wunderground v.1.15,2013-08-03 13:26:00,
2013-08-03 08:32:00,68.8,61.3,30.00,NNE,26,1.0,2.0,77,0.00,,,0.00,Wunderground v.1.15,2013-08-03 13:32:00,
2013-08-03 08:38:00,69.2,62.0,30.00,NNE,26,2.0,2.0,78,0.00,,,0.00,Wunderground v.1.15,2013-08-03 13:38:00,
2013-08-03 08:44:00,69.7,62.5,30.00,NNE,30,1.0,3.0,78,0.00,,,0.00,Wunderground v.1.15,2013-08-03 13:44:00,
2013-08-03 08:50:00,70.1,62.2,29.99,NNE,32,2.0,4.0,76,0.00,,,0.00,Wunderground v.1.15,2013-08-03 13:50:00,
2013-08-03 08:56:00,70.2,62.3,30.00,NE,41,2.0,5.0,76,0.00,,,0.00,Wunderground v.1.15,2013-08-03 13:56:00,
2013-08-03 09:02:00,70.7,62.8,30.00,NE,41,1.0,3.0,76,0.00,,,0.00,Wunderground v.1.15,2013-08-03 14:02:00,
2013-08-03 09:08:00,71.0,62.3,30.00,NE,41,1.0,3.0,74,0.00,,,0.00,Wunderground v.1.15,2013-08-03 14:08:00,
2013-08-03 09:14:00,71.4,63.1,30.00,NE,41,1.0,2.0,75,0.00,,,0.00,Wunderground v.1.15,2013-08-03 14:14:00,
2013-08-03 09:20:00,71.7,62.6,30.00,NE,41,2.0,2.0,73,0.00,,,0.00,Wunderground v.1.15,2013-08-03 14:20:00,
2013-08-03 09:26:00,72.0,62.9,29.99,NE,41,2.0,5.0,73,0.00,,,0.00,Wunderground v.1.15,2013-08-03 14:26:00,
2013-08-03 09:32:00,72.3,63.2,29.99,NE,49,2.0,2.0,73,0.00,,,0.00,Wunderground v.1.15,2013-08-03 14:32:00,
2013-08-03 09:38:00,72.6,62.7,30.00,NE,42,3.0,3.0,71,0.00,,,0.00,Wunderground v.1.15,2013-08-03 14:38:00,
2013-08-03 09:44:00,73.0,63.4,30.00,NE,46,3.0,3.0,72,0.00,,,0.00,Wunderground v.1.15,2013-08-03 14:44:00,
2013-08-03 09:50:00,73.6,64.0,30.00,NE,48,1.0,3.0,72,0.00,,,0.00,Wunderground v.1.15,2013-08-03 14:50:00,
2013-08-03 09:56:00,73.7,64.1,30.00,NE,48,1.0,1.0,72,0.00,,,0.00,Wunderground v.1.15,2013-08-03 14:56:00,
2013-08-03 10:02:00,73.9,63.5,30.00,NE,48,1.0,1.0,70,0.00,,,0.00,Wunderground v.1.15,2013-08-03 15:02:00,
2013-08-03 10:08:00,74.1,64.5,30.01,NE,48,1.0,3.0,72,0.00,,,0.00,Wunderground v.1.15,2013-08-03 15:08:00,
2013-08-03 10:14:00,74.5,65.3,30.00,NE,48,1.0,1.0,73,0.00,,,0.00,Wunderground v.1.15,2013-08-03 15:14:00,
2013-08-03 10:20:00,74.9,64.5,30.01,NE,48,1.0,2.0,70,0.00,,,0.00,Wunderground v.1.15,2013-08-03 15:20:00,
2013-08-03 10:26:00,74.8,63.9,30.01,NNW,338,1.0,2.0,69,0.00,,,0.00,Wunderground v.1.15,2013-08-03 15:26:00,
2013-08-03 10:34:00,74.5,63.2,30.01,NNW,338,2.0,3.0,68,0.00,,,0.00,Wunderground v.1.15,2013-08-03 15:34:00,
2013-08-03 10:40:00,74.6,63.3,30.02,NNW,342,1.0,1.0,68,0.00,,,0.00,Wunderground v.1.15,2013-08-03 15:40:00,
2013-08-03 10:46:00,74.8,64.4,30.02,NNW,342,1.0,2.0,70,0.00,,,0.00,Wunderground v.1.15,2013-08-03 15:46:00,
2013-08-03 10:52:00,75.2,64.3,30.02,NE,40,1.0,3.0,69,0.00,,,0.00,Wunderground v.1.15,2013-08-03 15:52:00,
2013-08-03 10:58:00,75.6,62.6,30.02,NNE,22,1.0,3.0,64,0.00,,,0.00,Wunderground v.1.15,2013-08-03 15:58:00,
2013-08-03 11:04:00,75.9,63.3,30.02,NE,41,1.0,2.0,65,0.00,,,0.00,Wunderground v.1.15,2013-08-03 16:04:00,
2013-08-03 11:10:00,76.1,63.9,30.02,NNE,22,1.0,2.0,66,0.00,,,0.00,Wunderground v.1.15,2013-08-03 16:10:00,
2013-08-03 11:16:00,76.5,63.4,30.02,NE,55,1.0,5.0,64,0.00,,,0.00,Wunderground v.1.15,2013-08-03 16:16:00,
2013-08-03 11:22:00,76.9,62.4,30.02,NE,53,2.0,2.0,61,0.00,,,0.00,Wunderground v.1.15,2013-08-03 16:22:00,
2013-08-03 11:28:00,77.3,63.7,30.02,NE,52,2.0,2.0,63,0.00,,,0.00,Wunderground v.1.15,2013-08-03 16:28:00,
2013-08-03 11:34:00,77.2,62.2,30.02,NNW,342,2.0,3.0,60,0.00,,,0.00,Wunderground v.1.15,2013-08-03 16:34:00,
2013-08-03 11:40:00,76.8,62.8,30.02,NNW,343,2.0,3.0,62,0.00,,,0.00,Wunderground v.1.15,2013-08-03 16:40:00,
2013-08-03 11:46:00,76.7,62.2,30.02,NNW,342,2.0,2.0,61,0.00,,,0.00,Wunderground v.1.15,2013-08-03 16:46:00,
2013-08-03 11:52:00,76.9,62.4,30.02,NE,46,2.0,2.0,61,0.00,,,0.00,Wunderground v.1.15,2013-08-03 16:52:00,
2013-08-03 11:58:00,77.2,61.8,30.02,NE,51,2.0,3.0,59,0.00,,,0.00,Wunderground v.1.15,2013-08-03 16:58:00,
2013-08-03 12:04:00,77.0,61.1,30.01,NNW,342,2.0,5.0,58,0.00,,,0.00,Wunderground v.1.15,2013-08-03 17:04:00,
2013-08-03 12:10:00,77.0,60.1,30.02,NNW,347,2.0,2.0,56,0.00,,,0.00,Wunderground v.1.15,2013-08-03 17:10:00,
2013-08-03 12:16:00,77.0,61.6,30.02,NNW,347,2.0,8.0,59,0.00,,,0.00,Wunderground v.1.15,2013-08-03 17:16:00,
2013-08-03 12:22:00,77.2,62.7,30.02,NE,40,2.0,3.0,61,0.00,,,0.00,Wunderground v.1.15,2013-08-03 17:22:00,
2013-08-03 12:28:00,77.5,60.1,30.02,NNW,340,2.0,3.0,55,0.00,,,0.00,Wunderground v.1.15,2013-08-03 17:28:00,
2013-08-03 12:34:00,77.3,57.2,30.02,NNW,330,2.0,7.0,50,0.00,,,0.00,Wunderground v.1.15,2013-08-03 17:34:00,
2013-08-03 12:40:00,77.1,58.6,30.02,NNW,347,3.0,3.0,53,0.00,,,0.00,Wunderground v.1.15,2013-08-03 17:40:00,
2013-08-03 12:46:00,77.3,61.4,30.02,NNE,30,2.0,3.0,58,0.00,,,0.00,Wunderground v.1.15,2013-08-03 17:46:00,
2013-08-03 12:52:00,77.7,60.2,30.03,NE,46,1.0,1.0,55,0.00,,,0.00,Wunderground v.1.15,2013-08-03 17:52:00,
2013-08-03 12:58:00,77.6,57.5,30.03,North,355,2.0,6.0,50,0.00,,,0.00,Wunderground v.1.15,2013-08-03 17:58:00,
2013-08-03 13:04:00,77.6,59.1,30.03,NNW,336,2.0,2.0,53,0.00,,,0.00,Wunderground v.1.15,2013-08-03 18:04:00,
2013-08-03 13:10:00,77.7,59.2,30.03,North,9,1.0,2.0,53,0.00,,,0.00,Wunderground v.1.15,2013-08-03 18:10:00,
2013-08-03 13:16:00,77.8,59.8,30.03,NNW,343,1.0,3.0,54,0.00,,,0.00,Wunderground v.1.15,2013-08-03 18:16:00,
2013-08-03 13:22:00,77.8,60.8,30.03,NE,46,2.0,2.0,56,0.00,,,0.00,Wunderground v.1.15,2013-08-03 18:22:00,
2013-08-03 13:28:00,78.0,60.0,30.03,NNW,346,1.0,3.0,54,0.00,,,0.00,Wunderground v.1.15,2013-08-03 18:28:00,
2013-08-03 13:34:00,78.1,60.6,30.03,NNE,29,2.0,2.0,55,0.00,,,0.00,Wunderground v.1.15,2013-08-03 18:34:00,
2013-08-03 13:40:00,78.3,58.1,30.03,NE,44,1.0,2.0,50,0.00,,,0.00,Wunderground v.1.15,2013-08-03 18:40:00,
2013-08-03 13:46:00,78.1,59.0,30.04,NNW,338,2.0,7.0,52,0.00,,,0.00,Wunderground v.1.15,2013-08-03 18:46:00,
2013-08-03 13:52:00,77.1,59.7,30.04,NNW,342,3.0,3.0,55,0.00,,,0.00,Wunderground v.1.15,2013-08-03 18:52:00,
2013-08-03 13:58:00,77.3,58.8,30.04,NNE,30,3.0,3.0,53,0.00,,,0.00,Wunderground v.1.15,2013-08-03 18:58:00,
2013-08-03 14:04:00,77.3,59.4,30.04,NNW,344,4.0,7.0,54,0.00,,,0.00,Wunderground v.1.15,2013-08-03 19:04:00,
2013-08-03 14:10:00,77.6,58.6,30.03,NNW,335,3.0,3.0,52,0.00,,,0.00,Wunderground v.1.15,2013-08-03 19:10:00,
2013-08-03 14:15:00,77.8,58.8,30.04,NNE,25,2.0,3.0,52,0.00,,,0.00,Wunderground v.1.15,2013-08-03 19:15:00,
2013-08-03 14:22:00,77.6,56.4,30.03,NNW,346,2.0,3.0,48,0.00,,,0.00,Wunderground v.1.15,2013-08-03 19:22:00,
2013-08-03 14:28:00,78.0,57.3,30.03,North,349,2.0,5.0,49,0.00,,,0.00,Wunderground v.1.15,2013-08-03 19:28:00,
2013-08-03 14:34:00,78.3,58.7,30.03,WNW,288,2.0,5.0,51,0.00,,,0.00,Wunderground v.1.15,2013-08-03 19:34:00,
2013-08-03 14:40:00,78.6,59.5,30.03,NW,321,3.0,3.0,52,0.00,,,0.00,Wunderground v.1.15,2013-08-03 19:40:00,
2013-08-03 14:46:00,78.6,60.0,30.03,NNW,340,2.0,6.0,53,0.00,,,0.00,Wunderground v.1.15,2013-08-03 19:46:00,
2013-08-03 14:52:00,78.3,58.1,30.03,NNW,339,4.0,9.0,50,0.00,,,0.00,Wunderground v.1.15,2013-08-03 19:52:00,
2013-08-03 14:58:00,78.2,58.6,30.03,NNW,336,5.0,9.0,51,0.00,,,0.00,Wunderground v.1.15,2013-08-03 19:58:00,
2013-08-03 15:04:00,78.4,58.8,30.03,North,355,3.0,4.0,51,0.00,,,0.00,Wunderground v.1.15,2013-08-03 20:04:00,
2013-08-03 15:09:00,78.1,56.8,30.03,WNW,282,4.0,11.0,48,0.00,,,0.00,Wunderground v.1.15,2013-08-03 20:09:00,
2013-08-03 15:16:00,78.4,55.9,30.03,North,360,4.0,5.0,46,0.00,,,0.00,Wunderground v.1.15,2013-08-03 20:16:00,
2013-08-03 15:22:00,77.9,57.8,30.03,NNW,346,3.0,3.0,50,0.00,,,0.00,Wunderground v.1.15,2013-08-03 20:22:00,
2013-08-03 15:28:00,77.0,58.0,30.03,NNW,336,1.0,3.0,52,0.00,,,0.00,Wunderground v.1.15,2013-08-03 20:28:00,
2013-08-03 15:34:00,77.1,58.1,30.03,NNW,340,1.0,2.0,52,0.00,,,0.00,Wunderground v.1.15,2013-08-03 20:34:00,
2013-08-03 15:40:00,77.4,58.4,30.03,NNW,333,2.0,4.0,52,0.00,,,0.00,Wunderground v.1.15,2013-08-03 20:40:00,
2013-08-03 15:46:00,77.6,59.1,30.03,NNW,327,2.0,3.0,53,0.00,,,0.00,Wunderground v.1.15,2013-08-03 20:46:00,
2013-08-03 15:52:00,77.8,58.2,30.03,NNE,28,1.0,1.0,51,0.00,,,0.00,Wunderground v.1.15,2013-08-03 20:52:00,
2013-08-03 15:58:00,77.8,58.8,30.02,NE,40,2.0,2.0,52,0.00,,,0.00,Wunderground v.1.15,2013-08-03 20:58:00,
2013-08-03 16:04:00,78.2,55.7,30.02,NNW,337,2.0,4.0,46,0.00,,,0.00,Wunderground v.1.15,2013-08-03 21:04:00,
2013-08-03 16:10:00,78.1,57.4,30.03,NNW,342,3.0,3.0,49,0.00,,,0.00,Wunderground v.1.15,2013-08-03 21:10:00,
2013-08-03 16:16:00,78.0,54.9,30.03,NNW,341,3.0,5.0,45,0.00,,,0.00,Wunderground v.1.15,2013-08-03 21:16:00,
2013-08-03 16:22:00,78.0,56.7,30.03,NNW,335,4.0,4.0,48,0.00,,,0.00,Wunderground v.1.15,2013-08-03 21:22:00,
2013-08-03 16:28:00,78.2,56.9,30.02,North,355,3.0,4.0,48,0.00,,,0.00,Wunderground v.1.15,2013-08-03 21:28:00,
2013-08-03 16:34:00,78.6,56.7,30.03,NNW,340,2.0,3.0,47,0.00,,,0.00,Wunderground v.1.15,2013-08-03 21:34:00,
2013-08-03 16:40:00,78.5,57.2,30.02,NNW,343,2.0,5.0,48,0.00,,,0.00,Wunderground v.1.15,2013-08-03 21:40:00,
2013-08-03 16:46:00,78.4,54.7,30.03,North,350,2.0,5.0,44,0.00,,,0.00,Wunderground v.1.15,2013-08-03 21:46:00,
2013-08-03 16:52:00,78.5,56.6,30.03,NNW,344,2.0,4.0,47,0.00,,,0.00,Wunderground v.1.15,2013-08-03 21:52:00,
2013-08-03 16:58:00,78.5,56.6,30.03,NE,36,2.0,4.0,47,0.00,,,0.00,Wunderground v.1.15,2013-08-03 21:58:00,
2013-08-03 17:04:00,78.7,56.2,30.02,NNW,343,1.0,2.0,46,0.00,,,0.00,Wunderground v.1.15,2013-08-03 22:04:00,
2013-08-03 17:10:00,78.5,56.0,30.02,NNW,334,2.0,2.0,46,0.00,,,0.00,Wunderground v.1.15,2013-08-03 22:10:00,
2013-08-03 17:16:00,78.3,54.6,30.02,NNW,341,3.0,4.0,44,0.00,,,0.00,Wunderground v.1.15,2013-08-03 22:16:00,
2013-08-03 17:22:00,78.1,56.8,30.02,North,5,3.0,3.0,48,0.00,,,0.00,Wunderground v.1.15,2013-08-03 22:22:00,
2013-08-03 17:28:00,78.2,58.6,30.03,NNE,29,2.0,3.0,51,0.00,,,0.00,Wunderground v.1.15,2013-08-03 22:28:00,
2013-08-03 17:34:00,78.2,56.9,30.03,NE,41,1.0,2.0,48,0.00,,,0.00,Wunderground v.1.15,2013-08-03 22:34:00,
2013-08-03 17:40:00,78.4,57.7,30.03,NE,40,1.0,2.0,49,0.00,,,0.00,Wunderground v.1.15,2013-08-03 22:40:00,
2013-08-03 17:46:00,78.5,57.2,30.03,NE,42,2.0,2.0,48,0.00,,,0.00,Wunderground v.1.15,2013-08-03 22:46:00,
2013-08-03 17:52:00,78.7,58.5,30.03,NE,42,1.0,1.0,50,0.00,,,0.00,Wunderground v.1.15,2013-08-03 22:52:00,
2013-08-03 17:58:00,79.0,57.6,30.03,NE,42,0.0,1.0,48,0.00,,,0.00,Wunderground v.1.15,2013-08-03 22:58:00,
2013-08-03 18:04:00,79.2,57.8,30.03,NE,42,1.0,2.0,48,0.00,,,0.00,Wunderground v.1.15,2013-08-03 23:04:00,
2013-08-03 18:10:00,79.0,58.8,30.03,NE,41,1.0,2.0,50,0.00,,,0.00,Wunderground v.1.15,2013-08-03 23:10:00,
2013-08-03 18:16:00,79.0,59.9,30.03,NE,41,1.0,1.0,52,0.00,,,0.00,Wunderground v.1.15,2013-08-03 23:16:00,
2013-08-03 18:22:00,78.9,59.2,30.03,NE,40,0.0,2.0,51,0.00,,,0.00,Wunderground v.1.15,2013-08-03 23:22:00,
2013-08-03 18:28:00,78.5,58.3,30.03,NE,40,0.0,2.0,50,0.00,,,0.00,Wunderground v.1.15,2013-08-03 23:28:00,
2013-08-03 18:34:00,78.5,59.9,30.03,NE,40,0.0,0.0,53,0.00,,,0.00,Wunderground v.1.15,2013-08-03 23:34:00,
2013-08-03 18:40:00,78.6,60.6,30.03,NE,40,0.0,1.0,54,0.00,,,0.00,Wunderground v.1.15,2013-08-03 23:40:00,
2013-08-03 18:46:00,78.6,61.1,30.03,NE,40,0.0,0.0,55,0.00,,,0.00,Wunderground v.1.15,2013-08-03 23:46:00,
2013-08-03 18:52:00,78.4,61.9,30.03,NE,40,0.0,0.0,57,0.00,,,0.00,Wunderground v.1.15,2013-08-03 23:52:00,
2013-08-03 18:58:00,78.0,62.5,30.03,NE,40,0.0,0.0,59,0.00,,,0.00,Wunderground v.1.15,2013-08-03 23:58:00,
2013-08-03 19:04:00,77.9,62.9,30.03,NE,40,0.0,0.0,60,0.00,,,0.00,Wunderground v.1.15,2013-08-04 00:04:00,
2013-08-03 19:10:00,77.7,60.8,30.03,NE,40,0.0,0.0,56,0.00,,,0.00,Wunderground v.1.15,2013-08-04 00:10:00,
2013-08-03 19:16:00,77.8,61.3,30.03,NE,47,0.0,0.0,57,0.00,,,0.00,Wunderground v.1.15,2013-08-04 00:16:00,
2013-08-03 19:22:00,77.8,62.3,30.04,NE,46,0.0,0.0,59,0.00,,,0.00,Wunderground v.1.15,2013-08-04 00:22:00,
2013-08-03 19:28:00,77.2,62.7,30.04,NE,46,0.0,0.0,61,0.00,,,0.00,Wunderground v.1.15,2013-08-04 00:28:00,
2013-08-03 19:34:00,76.6,62.6,30.04,NE,46,0.0,0.0,62,0.00,,,0.00,Wunderground v.1.15,2013-08-04 00:34:00,
2013-08-03 19:40:00,76.0,62.0,30.04,NE,46,0.0,0.0,62,0.00,,,0.00,Wunderground v.1.15,2013-08-04 00:40:00,
2013-08-03 19:46:00,75.7,62.2,30.04,NE,46,0.0,0.0,63,0.00,,,0.00,Wunderground v.1.15,2013-08-04 00:46:00,
2013-08-03 19:52:00,75.3,64.4,30.04,NE,46,0.0,0.0,69,0.00,,,0.00,Wunderground v.1.15,2013-08-04 00:52:00,
2013-08-03 19:58:00,74.5,63.2,30.03,NE,46,0.0,0.0,68,0.00,,,0.00,Wunderground v.1.15,2013-08-04 00:58:00,
2013-08-03 20:03:00,72.6,63.1,30.03,NE,46,0.0,1.0,72,0.00,,,0.00,Wunderground v.1.15,2013-08-04 01:03:00,
2013-08-03 20:10:00,70.9,63.0,30.03,NE,46,0.0,0.0,76,0.00,,,0.00,Wunderground v.1.15,2013-08-04 01:10:00,
2013-08-03 20:16:00,69.9,62.7,30.03,NE,46,0.0,0.0,78,0.00,,,0.00,Wunderground v.1.15,2013-08-04 01:16:00,
2013-08-03 20:22:00,69.1,62.7,30.03,NE,46,0.0,0.0,80,0.00,,,0.00,Wunderground v.1.15,2013-08-04 01:22:00,
2013-08-03 20:28:00,68.2,62.5,30.03,NE,46,0.0,0.0,82,0.00,,,0.00,Wunderground v.1.15,2013-08-04 01:28:00,
2013-08-03 20:34:00,67.3,62.0,30.03,NE,46,0.0,0.0,83,0.00,,,0.00,Wunderground v.1.15,2013-08-04 01:34:00,
2013-08-03 20:40:00,66.6,61.6,30.03,NE,46,0.0,0.0,84,0.00,,,0.00,Wunderground v.1.15,2013-08-04 01:40:00,
2013-08-03 20:46:00,66.1,61.5,30.03,NE,46,0.0,0.0,85,0.00,,,0.00,Wunderground v.1.15,2013-08-04 01:46:00,
2013-08-03 20:52:00,65.8,61.2,30.04,NE,46,0.0,0.0,85,0.00,,,0.00,Wunderground v.1.15,2013-08-04 01:52:00,
2013-08-03 20:58:00,65.3,61.0,30.04,NE,46,0.0,0.0,86,0.00,,,0.00,Wunderground v.1.15,2013-08-04 01:58:00,
2013-08-03 21:04:00,64.7,60.7,30.04,NE,46,0.0,0.0,87,0.00,,,0.00,Wunderground v.1.15,2013-08-04 02:04:00,
2013-08-03 21:10:00,64.2,60.6,30.05,NE,46,0.0,0.0,88,0.00,,,0.00,Wunderground v.1.15,2013-08-04 02:10:00,
2013-08-03 21:16:00,63.9,60.3,30.05,NE,46,0.0,0.0,88,0.00,,,0.00,Wunderground v.1.15,2013-08-04 02:16:00,
2013-08-03 21:22:00,63.6,60.0,30.05,NE,46,0.0,0.0,88,0.00,,,0.00,Wunderground v.1.15,2013-08-04 02:22:00,
2013-08-03 21:28:00,63.2,59.6,30.06,NE,46,0.0,1.0,88,0.00,,,0.00,Wunderground v.1.15,2013-08-04 02:28:00,
2013-08-03 21:34:00,63.0,59.4,30.06,NE,46,0.0,0.0,88,0.00,,,0.00,Wunderground v.1.15,2013-08-04 02:34:00,
2013-08-03 21:40:00,63.0,59.7,30.06,NE,46,0.0,0.0,89,0.00,,,0.00,Wunderground v.1.15,2013-08-04 02:40:00,
2013-08-03 21:46:00,63.0,59.4,30.06,NE,46,0.0,0.0,88,0.00,,,0.00,Wunderground v.1.15,2013-08-04 02:46:00,
2013-08-03 21:51:00,62.8,59.2,30.06,NE,46,0.0,0.0,88,0.00,,,0.00,Wunderground v.1.15,2013-08-04 02:51:00,
2013-08-03 21:58:00,62.5,58.9,30.06,NE,46,0.0,0.0,88,0.00,,,0.00,Wunderground v.1.15,2013-08-04 02:58:00,
2013-08-03 22:04:00,62.2,58.9,30.06,NE,46,0.0,0.0,89,0.00,,,0.00,Wunderground v.1.15,2013-08-04 03:04:00,
2013-08-03 22:10:00,61.9,58.6,30.06,NE,46,0.0,0.0,89,0.00,,,0.00,Wunderground v.1.15,2013-08-04 03:10:00,
2013-08-03 22:16:00,61.6,58.3,30.06,NE,46,0.0,0.0,89,0.00,,,0.00,Wunderground v.1.15,2013-08-04 03:16:00,
2013-08-03 22:22:00,61.4,58.4,30.06,NE,46,0.0,0.0,90,0.00,,,0.00,Wunderground v.1.15,2013-08-04 03:22:00,
2013-08-03 22:28:00,61.1,58.1,30.07,NE,46,0.0,0.0,90,0.00,,,0.00,Wunderground v.1.15,2013-08-04 03:28:00,
2013-08-03 22:34:00,61.2,58.2,30.07,NE,46,0.0,0.0,90,0.00,,,0.00,Wunderground v.1.15,2013-08-04 03:34:00,
2013-08-03 22:40:00,61.3,58.3,30.07,NE,46,0.0,0.0,90,0.00,,,0.00,Wunderground v.1.15,2013-08-04 03:40:00,
2013-08-03 22:46:00,61.3,58.0,30.07,NE,46,0.0,1.0,89,0.00,,,0.00,Wunderground v.1.15,2013-08-04 03:46:00,
2013-08-03 22:51:00,61.3,58.0,30.07,NE,46,1.0,1.0,89,0.00,,,0.00,Wunderground v.1.15,2013-08-04 03:51:00,
2013-08-03 22:58:00,61.2,57.9,30.07,NE,46,1.0,1.0,89,0.00,,,0.00,Wunderground v.1.15,2013-08-04 03:58:00,
2013-08-03 23:02:00,61.2,57.9,30.07,NE,46,0.0,0.0,89,0.00,,,0.00,Wunderground v.1.15,2013-08-04 04:02:00,
2013-08-03 23:04:00,61.2,57.9,30.07,NE,46,0.0,0.0,89,0.00,,,0.00,Wunderground v.1.15,2013-08-04 04:04:00,
2013-08-03 23:08:00,61.1,57.8,30.07,NE,46,0.0,0.0,89,0.00,,,0.00,Wunderground v.1.15,2013-08-04 04:08:00,
2013-08-03 23:11:00,61.1,57.8,30.07,NE,46,0.0,0.0,89,0.00,,,0.00,Wunderground v.1.15,2013-08-04 04:11:00,
2013-08-03 23:18:00,61.0,57.7,30.07,NE,46,0.0,0.0,89,0.00,,,0.00,Wunderground v.1.15,2013-08-04 04:18:00,
2013-08-03 23:22:00,60.9,57.6,30.07,NE,46,0.0,0.0,89,0.00,,,0.00,Wunderground v.1.15,2013-08-04 04:22:00,
2013-08-03 23:28:00,60.7,57.7,30.07,NE,46,0.0,0.0,90,0.00,,,0.00,Wunderground v.1.15,2013-08-04 04:28:00,
2013-08-03 23:34:00,60.4,57.5,30.07,NE,46,0.0,0.0,90,0.00,,,0.00,Wunderground v.1.15,2013-08-04 04:34:00,
2013-08-03 23:40:00,60.1,57.2,30.07,NE,46,0.0,0.0,90,0.00,,,0.00,Wunderground v.1.15,2013-08-04 04:40:00,
2013-08-03 23:46:00,59.8,56.9,30.08,NE,46,0.0,0.0,90,0.00,,,0.00,Wunderground v.1.15,2013-08-04 04:46:00,
2013-08-03 23:52:00,59.5,56.9,30.08,NE,46,0.0,0.0,91,0.00,,,0.00,Wunderground v.1.15,2013-08-04 04:52:00,
2013-08-03 23:58:00,59.7,57.1,30.08,NE,46,0.0,0.0,91,0.00,,,0.00,Wunderground v.1.15,2013-08-04 04:58:00,